Time;durP1;ratioP1;P1;durP2;ratioP2;P2;SDS_P1;SDS_P2;PMS_P1;PMS_P2;Temp;Humidity;BMP_temperature;BMP_pressure;BME280_temperature;BME280_humidity;BME280_pressure;Samples;Min_cycle;Max_cycle;Signal;HPM_P1;HPM_P2
2023/06/27 00:00:21;;;;;;;3.90;1.50;;;12.50;99.90;;;;;;7353549;32;20249;-56
2023/06/27 00:04:23;;;;;;;2.80;1.15;;;12.60;99.90;;;;;;7354847;32;20174;-55
2023/06/27 00:08:27;;;;;;;4.95;1.30;;;12.50;99.90;;;;;;7356623;32;20145;-56
2023/06/27 00:12:30;;;;;;;4.03;1.52;;;12.50;99.90;;;;;;7351955;32;20156;-57
2023/06/27 00:16:32;;;;;;;3.72;1.65;;;12.40;99.90;;;;;;7353471;32;20206;-56
2023/06/27 00:20:34;;;;;;;7.30;1.25;;;12.40;99.90;;;;;;7342667;32;20111;-55
2023/06/27 00:24:36;;;;;;;3.62;1.12;;;12.40;99.90;;;;;;7349224;32;20133;-57
2023/06/27 00:28:38;;;;;;;2.22;1.30;;;12.40;99.90;;;;;;7346337;32;20853;-55
2023/06/27 00:32:40;;;;;;;2.25;1.30;;;12.30;99.90;;;;;;7351937;32;20103;-56
2023/06/27 00:36:42;;;;;;;8.43;1.65;;;12.20;99.90;;;;;;7355473;32;20276;-56
2023/06/27 00:40:43;;;;;;;3.83;1.83;;;12.20;99.90;;;;;;7351779;32;20176;-55
2023/06/27 00:44:45;;;;;;;2.03;1.50;;;12.20;99.90;;;;;;7346761;32;20205;-56
2023/06/27 00:48:47;;;;;;;3.67;1.50;;;12.20;99.90;;;;;;7351430;32;20099;-55
2023/06/27 00:52:50;;;;;;;2.33;1.35;;;12.10;99.90;;;;;;7353704;32;20186;-56
2023/06/27 00:56:56;;;;;;;3.47;1.52;;;12.10;99.90;;;;;;7347303;32;20326;-56
2023/06/27 01:01:00;;;;;;;2.80;1.62;;;12.10;99.90;;;;;;7351692;32;20155;-55
2023/06/27 01:05:02;;;;;;;3.12;1.58;;;12.00;99.90;;;;;;7353038;32;20642;-56
2023/06/27 01:09:22;;;;;;;4.85;1.60;;;12.10;99.90;;;;;;7347440;32;20568;-55
2023/06/27 01:13:29;;;;;;;2.95;1.02;;;12.00;99.90;;;;;;7357464;32;20235;-55
2023/06/27 01:17:32;;;;;;;3.58;1.58;;;12.10;99.90;;;;;;7358467;32;20132;-56
2023/06/27 01:21:36;;;;;;;2.83;1.77;;;12.00;99.90;;;;;;7358449;32;20125;-56
2023/06/27 01:25:38;;;;;;;4.00;1.62;;;12.00;99.90;;;;;;7354544;32;20104;-55
2023/06/27 01:29:43;;;;;;;4.30;1.30;;;12.00;99.90;;;;;;7353710;32;20107;-55
2023/06/27 01:34:15;;;;;;;3.60;1.40;;;11.90;99.90;;;;;;7351855;32;20254;-56
2023/06/27 01:38:24;;;;;;;8.13;1.50;;;12.00;99.90;;;;;;7357730;32;20111;-56
2023/06/27 01:42:29;;;;;;;4.10;1.62;;;12.00;99.90;;;;;;7350202;32;20252;-56
2023/06/27 01:46:32;;;;;;;2.92;1.55;;;11.90;99.90;;;;;;7344027;32;20252;-55
2023/06/27 01:50:34;;;;;;;3.17;1.62;;;11.90;99.90;;;;;;7360156;32;20119;-55
2023/06/27 01:54:36;;;;;;;4.40;1.40;;;11.80;99.90;;;;;;7355750;32;20130;-55
2023/06/27 01:58:38;;;;;;;5.40;1.60;;;11.80;99.90;;;;;;7358094;32;20152;-55
2023/06/27 02:02:40;;;;;;;2.92;1.67;;;11.80;99.90;;;;;;7357085;32;20478;-56
2023/06/27 02:06:42;;;;;;;2.35;1.65;;;11.70;99.90;;;;;;7357516;32;20778;-55
2023/06/27 02:10:43;;;;;;;8.02;1.50;;;11.80;99.90;;;;;;7356183;32;20271;-55
2023/06/27 02:14:45;;;;;;;4.75;1.80;;;11.80;99.90;;;;;;7358352;32;20099;-56
2023/06/27 02:18:47;;;;;;;5.70;1.55;;;11.80;99.90;;;;;;7355042;32;21817;-57
2023/06/27 02:22:48;;;;;;;6.00;1.85;;;11.80;99.90;;;;;;7352099;32;20130;-56
2023/06/27 02:26:50;;;;;;;6.68;1.55;;;11.80;99.90;;;;;;7352714;32;20266;-55
2023/06/27 02:30:52;;;;;;;8.05;1.52;;;11.80;99.90;;;;;;7349707;32;20259;-55
2023/06/27 02:34:54;;;;;;;2.95;1.67;;;11.70;99.90;;;;;;7352734;32;20144;-55
2023/06/27 02:38:56;;;;;;;2.33;1.40;;;11.80;99.90;;;;;;7352000;32;20099;-56
2023/06/27 02:42:57;;;;;;;3.87;1.60;;;11.70;99.90;;;;;;7347891;32;20099;-55
2023/06/27 02:46:59;;;;;;;3.03;1.50;;;11.70;99.90;;;;;;7346290;32;20108;-55
2023/06/27 02:51:01;;;;;;;2.33;1.65;;;11.80;99.90;;;;;;7349685;32;20571;-55
2023/06/27 02:55:03;;;;;;;4.37;1.77;;;11.80;99.90;;;;;;7346740;32;20091;-55
2023/06/27 02:59:04;;;;;;;4.45;2.00;;;11.90;99.90;;;;;;7354758;32;20119;-56
2023/06/27 03:03:06;;;;;;;5.45;1.83;;;11.80;99.90;;;;;;7350351;32;20182;-57
2023/06/27 03:07:08;;;;;;;5.15;1.80;;;11.70;99.90;;;;;;7354813;32;20103;-56
2023/06/27 03:11:10;;;;;;;4.20;1.67;;;11.80;99.90;;;;;;7352264;32;20193;-55
2023/06/27 03:15:11;;;;;;;3.75;1.60;;;11.80;99.90;;;;;;7355137;32;20148;-56
2023/06/27 03:19:13;;;;;;;4.05;1.58;;;11.80;99.90;;;;;;7354822;32;20795;-55
2023/06/27 03:23:15;;;;;;;2.20;1.48;;;11.80;99.90;;;;;;7357746;32;20125;-56
2023/06/27 03:27:20;;;;;;;4.35;1.50;;;11.80;99.90;;;;;;7353363;32;20155;-56
2023/06/27 03:31:22;;;;;;;2.53;1.60;;;11.90;99.90;;;;;;7353407;32;20116;-55
2023/06/27 03:35:24;;;;;;;4.65;1.70;;;11.90;99.90;;;;;;7353862;32;20152;-57
2023/06/27 03:39:25;;;;;;;5.40;1.87;;;11.90;99.90;;;;;;7353745;32;20146;-55
2023/06/27 03:43:27;;;;;;;2.90;1.70;;;11.90;99.90;;;;;;7356156;32;20102;-55
2023/06/27 03:47:30;;;;;;;3.87;1.95;;;12.00;99.90;;;;;;7349390;32;20108;-56
2023/06/27 03:51:33;;;;;;;5.10;2.12;;;12.00;99.90;;;;;;7354989;32;20099;-55
2023/06/27 03:55:37;;;;;;;2.65;1.60;;;12.10;99.90;;;;;;7342196;32;20168;-55
2023/06/27 03:59:39;;;;;;;3.40;1.80;;;12.10;99.90;;;;;;7353571;32;20139;-56
2023/06/27 04:03:41;;;;;;;2.58;1.95;;;12.20;99.90;;;;;;7353795;32;20155;-55
2023/06/27 04:07:43;;;;;;;5.62;2.17;;;12.20;99.90;;;;;;7345847;32;20107;-55
2023/06/27 04:11:45;;;;;;;4.90;1.90;;;12.10;99.90;;;;;;7349319;32;20533;-55
2023/06/27 04:15:46;;;;;;;5.15;2.15;;;12.20;99.90;;;;;;7351584;32;20103;-57
2023/06/27 04:19:48;;;;;;;3.55;1.80;;;12.30;99.90;;;;;;7353112;32;20673;-57
2023/06/27 04:23:54;;;;;;;3.08;2.00;;;12.40;99.90;;;;;;7345566;32;20455;-56
2023/06/27 04:27:56;;;;;;;2.53;1.87;;;12.60;99.90;;;;;;7345021;32;20099;-55
2023/06/27 04:31:58;;;;;;;3.17;1.87;;;12.80;99.90;;;;;;7350629;32;20214;-56
2023/06/27 04:36:04;;;;;;;4.95;2.22;;;13.00;99.90;;;;;;7340597;32;21291;-56
2023/06/27 04:40:06;;;;;;;5.25;1.83;;;13.20;99.90;;;;;;7351067;32;20119;-56
2023/06/27 04:44:08;;;;;;;4.37;2.28;;;13.60;99.90;;;;;;7346721;32;20107;-55
2023/06/27 04:48:10;;;;;;;4.40;2.08;;;13.90;99.90;;;;;;7350256;32;20171;-57
2023/06/27 04:52:11;;;;;;;7.28;3.05;;;14.10;99.90;;;;;;7346331;32;20099;-57
2023/06/27 04:56:13;;;;;;;8.65;2.65;;;14.30;99.90;;;;;;7346328;32;20151;-56
2023/06/27 05:00:15;;;;;;;6.10;2.62;;;14.60;99.90;;;;;;7348043;32;20186;-57
2023/06/27 05:04:17;;;;;;;7.68;2.60;;;14.80;99.90;;;;;;7351207;32;20103;-58
2023/06/27 05:08:18;;;;;;;9.02;2.83;;;14.90;99.90;;;;;;7351732;32;20100;-57
2023/06/27 05:12:20;;;;;;;9.90;2.85;;;15.10;99.90;;;;;;7353470;32;20103;-56
2023/06/27 05:16:23;;;;;;;6.93;2.67;;;15.20;99.90;;;;;;7345272;32;20103;-56
2023/06/27 05:20:25;;;;;;;10.13;2.62;;;15.50;99.90;;;;;;7351823;32;20145;-57
2023/06/27 05:24:27;;;;;;;6.37;2.53;;;15.60;99.90;;;;;;7347408;32;20185;-56
2023/06/27 05:28:29;;;;;;;10.73;2.70;;;15.70;99.90;;;;;;7352277;32;20115;-57
2023/06/27 05:32:30;;;;;;;7.90;2.75;;;15.60;99.90;;;;;;7346720;32;20197;-57
2023/06/27 05:36:33;;;;;;;11.40;3.22;;;15.70;99.90;;;;;;7348799;32;20099;-56
2023/06/27 05:40:35;;;;;;;9.98;3.28;;;15.70;99.90;;;;;;7343798;32;20345;-56
2023/06/27 05:44:37;;;;;;;8.52;2.90;;;15.80;99.90;;;;;;7347505;32;20129;-55
2023/06/27 05:48:39;;;;;;;12.77;3.45;;;15.90;99.90;;;;;;7354292;32;20146;-56
2023/06/27 05:52:41;;;;;;;9.90;2.72;;;15.90;99.90;;;;;;7348461;32;20102;-56
2023/06/27 05:56:42;;;;;;;8.70;3.20;;;16.00;99.90;;;;;;7356654;32;20176;-56
2023/06/27 06:00:44;;;;;;;10.18;2.90;;;16.40;99.90;;;;;;7350054;32;20194;-56
2023/06/27 06:04:46;;;;;;;7.87;2.87;;;16.80;99.90;;;;;;7355869;32;20130;-57
2023/06/27 06:08:47;;;;;;;11.93;2.83;;;17.60;99.90;;;;;;7350453;32;20091;-58
2023/06/27 06:12:49;;;;;;;8.98;2.87;;;18.50;99.90;;;;;;7342603;32;20407;-56
2023/06/27 06:16:51;;;;;;;11.82;3.25;;;18.70;99.90;;;;;;7351940;32;20149;-56
2023/06/27 06:20:53;;;;;;;9.38;2.87;;;18.90;99.90;;;;;;7348861;32;20186;-56
2023/06/27 06:24:54;;;;;;;9.45;3.05;;;19.10;99.90;;;;;;7346406;32;20516;-57
2023/06/27 06:28:56;;;;;;;16.27;2.92;;;19.20;99.90;;;;;;7352780;32;20250;-56
2023/06/27 06:32:58;;;;;;;8.20;3.05;;;19.60;99.90;;;;;;7353323;32;20465;-57
2023/06/27 06:36:59;;;;;;;10.50;3.25;;;20.20;99.90;;;;;;7353924;32;20100;-57
2023/06/27 06:41:02;;;;;;;9.70;3.00;;;20.70;99.90;;;;;;7350732;32;20195;-58
2023/06/27 06:45:04;;;;;;;13.73;3.58;;;21.00;99.90;;;;;;7353422;32;20706;-56
2023/06/27 06:49:07;;;;;;;12.18;3.50;;;20.90;99.90;;;;;;7355876;32;20182;-57
2023/06/27 06:53:08;;;;;;;11.75;3.20;;;21.20;99.90;;;;;;7354910;32;20282;-57
2023/06/27 06:57:10;;;;;;;13.50;3.05;;;21.40;99.90;;;;;;7349664;32;20181;-56
2023/06/27 07:01:12;;;;;;;9.32;3.03;;;21.40;99.90;;;;;;7349707;32;20526;-56
2023/06/27 07:05:13;;;;;;;11.57;3.20;;;22.00;99.90;;;;;;7350900;32;20181;-56
2023/06/27 07:09:15;;;;;;;11.80;3.12;;;21.60;99.90;;;;;;7348677;32;20235;-56
2023/06/27 07:13:17;;;;;;;13.27;3.37;;;22.30;99.90;;;;;;7348811;32;20152;-57
2023/06/27 07:17:19;;;;;;;11.95;3.70;;;22.50;99.90;;;;;;7354022;32;20151;-56
2023/06/27 07:21:21;;;;;;;10.98;3.10;;;22.60;99.90;;;;;;7348381;32;20173;-56
2023/06/27 07:25:23;;;;;;;9.70;3.15;;;22.70;99.90;;;;;;7351880;32;20162;-57
2023/06/27 07:29:25;;;;;;;12.65;2.72;;;22.30;99.90;;;;;;7348926;32;20934;-56
2023/06/27 07:33:27;;;;;;;11.88;3.40;;;22.80;99.90;;;;;;7348593;32;20107;-56
2023/06/27 07:37:28;;;;;;;8.93;2.72;;;23.10;99.90;;;;;;7346124;32;20131;-55
2023/06/27 07:41:30;;;;;;;15.63;3.62;;;22.70;99.90;;;;;;7347159;32;20177;-56
2023/06/27 07:45:32;;;;;;;10.05;2.72;;;22.50;99.90;;;;;;7354406;32;20111;-55
2023/06/27 07:49:34;;;;;;;13.55;3.53;;;22.50;99.90;;;;;;7352927;32;20108;-56
2023/06/27 07:53:35;;;;;;;11.70;3.00;;;22.20;99.90;;;;;;7345145;32;20112;-56
2023/06/27 07:57:37;;;;;;;13.65;3.08;;;22.00;99.90;;;;;;7345715;32;20303;-55
2023/06/27 08:01:40;;;;;;;12.20;3.05;;;22.00;99.90;;;;;;7350005;32;20187;-56
2023/06/27 08:05:41;;;;;;;15.00;3.20;;;22.40;99.90;;;;;;7357428;32;20111;-56
2023/06/27 08:09:45;;;;;;;10.85;3.75;;;22.20;99.90;;;;;;7350166;32;20115;-56
2023/06/27 08:13:47;;;;;;;10.80;3.20;;;21.90;99.90;;;;;;7349719;32;20133;-56
2023/06/27 08:17:49;;;;;;;20.88;3.53;;;21.90;99.90;;;;;;7339219;32;20460;-56
2023/06/27 08:21:50;;;;;;;12.88;2.97;;;22.10;99.90;;;;;;7350805;32;20096;-57
2023/06/27 08:25:54;;;;;;;9.98;2.62;;;22.10;99.90;;;;;;7345621;32;20191;-56
2023/06/27 08:29:55;;;;;;;14.68;3.15;;;22.20;99.90;;;;;;7344091;32;20217;-57
2023/06/27 08:33:57;;;;;;;12.32;3.40;;;22.20;99.90;;;;;;7347829;32;20129;-57
2023/06/27 08:37:59;;;;;;;12.45;2.90;;;22.10;99.90;;;;;;7345548;32;20213;-57
2023/06/27 08:42:01;;;;;;;11.55;2.83;;;22.10;99.90;;;;;;7343894;32;20350;-58
2023/06/27 08:46:08;;;;;;;14.15;2.95;;;21.90;99.90;;;;;;7348346;32;20626;-57
2023/06/27 08:50:12;;;;;;;;;;;22.40;99.90;;;;;;7350044;32;20666;-57
2023/06/27 08:54:24;;;;;;;10.55;2.30;;;22.30;99.90;;;;;;7343831;32;20002;-56
2023/06/27 08:58:30;;;;;;;8.02;2.10;;;22.50;99.90;;;;;;7350741;32;20245;-57
2023/06/27 09:02:34;;;;;;;12.05;2.95;;;22.60;99.90;;;;;;7344243;32;20540;-57
2023/06/27 09:06:40;;;;;;;11.57;2.20;;;23.50;99.90;;;;;;7347967;32;20174;-58
2023/06/27 09:10:43;;;;;;;8.20;2.35;;;24.00;99.90;;;;;;7342985;32;20146;-56
2023/06/27 09:14:45;;;;;;;7.28;1.98;;;24.10;99.90;;;;;;7348046;32;20219;-56
2023/06/27 09:18:47;;;;;;;7.45;1.90;;;23.30;99.90;;;;;;7347311;32;20134;-57
2023/06/27 09:22:50;;;;;;;6.43;1.48;;;22.40;99.90;;;;;;7349951;32;20142;-58
2023/06/27 09:26:52;;;;;;;6.87;1.92;;;22.10;99.90;;;;;;7347982;32;20130;-57
2023/06/27 09:30:55;;;;;;;10.32;2.30;;;22.10;99.90;;;;;;7347323;32;20281;-56
2023/06/27 09:35:03;;;;;;;5.53;1.70;;;21.90;99.90;;;;;;7353637;32;20514;-57
2023/06/27 09:39:07;;;;;;;8.07;2.12;;;22.10;99.90;;;;;;7351193;32;20335;-56
2023/06/27 09:43:09;;;;;;;9.38;1.73;;;22.10;99.90;;;;;;7355349;32;20461;-58
2023/06/27 09:47:11;;;;;;;4.82;1.80;;;22.40;99.90;;;;;;7355485;32;20157;-57
2023/06/27 09:51:12;;;;;;;5.95;1.73;;;23.00;99.90;;;;;;7358117;32;20265;-56
2023/06/27 09:55:19;;;;;;;8.27;1.80;;;23.60;99.90;;;;;;7353390;32;20431;-56
2023/06/27 09:59:26;;;;;;;8.68;1.83;;;23.90;99.90;;;;;;7350781;32;20291;-56
2023/06/27 10:03:28;;;;;;;4.32;1.37;;;23.60;99.90;;;;;;7357506;32;20125;-56
2023/06/27 10:07:31;;;;;;;8.90;1.73;;;23.50;99.90;;;;;;7345313;32;20103;-56
2023/06/27 10:11:33;;;;;;;6.37;1.33;;;23.60;99.90;;;;;;7352128;32;20122;-56
2023/06/27 10:15:35;;;;;;;4.95;1.35;;;23.10;99.90;;;;;;7351398;32;20235;-56
2023/06/27 10:19:38;;;;;;;8.65;1.98;;;23.50;99.90;;;;;;7352527;32;20191;-56
2023/06/27 10:23:42;;;;;;;8.57;1.75;;;23.30;99.90;;;;;;7348570;32;20183;-57
2023/06/27 10:27:44;;;;;;;8.30;1.70;;;23.70;99.90;;;;;;7348225;32;20139;-57
2023/06/27 10:31:45;;;;;;;5.90;1.50;;;23.80;99.90;;;;;;7353774;32;20222;-57
2023/06/27 10:35:57;;;;;;;6.93;1.42;;;24.40;99.90;;;;;;7352150;32;20135;-57
2023/06/27 10:40:08;;;;;;;4.90;1.35;;;24.30;99.90;;;;;;7347231;32;20171;-57
2023/06/27 10:44:10;;;;;;;5.18;1.40;;;23.90;99.90;;;;;;7344396;32;20383;-58
2023/06/27 10:48:25;;;;;;;6.43;1.60;;;23.50;99.90;;;;;;7342467;32;20112;-57
2023/06/27 10:52:27;;;;;;;8.48;1.90;;;23.50;99.90;;;;;;7343594;32;20417;-57
2023/06/27 10:56:29;;;;;;;10.95;1.75;;;23.70;99.90;;;;;;7345808;32;20225;-57
2023/06/27 11:00:32;;;;;;;7.97;1.75;;;23.50;99.90;;;;;;7353396;32;20133;-58
2023/06/27 11:04:44;;;;;;;8.55;1.80;;;23.30;99.90;;;;;;7351772;32;20128;-57
2023/06/27 11:08:54;;;;;;;6.68;1.60;;;22.60;99.90;;;;;;7356887;32;20126;-57
2023/06/27 11:13:33;;;;;;;12.52;2.03;;;22.00;99.90;;;;;;7346287;32;20161;-57
2023/06/27 11:17:38;;;;;;;7.20;1.50;;;22.10;99.90;;;;;;7295072;32;20115;-57
2023/06/27 11:21:39;;;;;;;6.25;1.58;;;22.00;99.90;;;;;;7350666;32;20703;-57
2023/06/27 11:25:43;;;;;;;8.43;2.08;;;21.70;99.90;;;;;;7357803;32;20111;-57
2023/06/27 11:29:45;;;;;;;7.72;1.75;;;21.40;99.90;;;;;;7356780;32;20123;-57
2023/06/27 11:33:56;;;;;;;10.15;2.40;;;21.40;99.90;;;;;;7351599;32;20137;-58
2023/06/27 11:37:59;;;;;;;6.70;1.65;;;21.40;99.90;;;;;;7349414;32;20483;-57
2023/06/27 11:42:00;;;;;;;3.53;1.48;;;21.40;99.90;;;;;;7355347;32;20099;-57
2023/06/27 11:46:04;;;;;;;7.47;1.60;;;21.50;99.90;;;;;;7357475;32;20130;-57
2023/06/27 11:50:10;;;;;;;5.22;1.50;;;22.00;99.90;;;;;;7356720;32;20271;-57
2023/06/27 11:54:17;;;;;;;6.03;1.55;;;22.30;99.90;;;;;;7354238;32;20142;-57
2023/06/27 11:58:29;;;;;;;6.23;1.43;;;22.70;99.90;;;;;;7356565;32;20137;-57
2023/06/27 12:02:30;;;;;;;5.93;1.80;;;22.40;99.90;;;;;;7353575;32;20119;-58
2023/06/27 12:06:32;;;;;;;9.38;1.58;;;22.40;99.90;;;;;;7356758;32;20119;-57
2023/06/27 12:10:49;;;;;;;7.37;1.50;;;22.80;99.90;;;;;;7354986;32;20171;-57
2023/06/27 12:14:51;;;;;;;8.07;1.58;;;23.00;99.90;;;;;;7353690;32;20151;-57
2023/06/27 12:18:52;;;;;;;4.68;1.45;;;23.40;99.90;;;;;;7354188;32;20160;-58
2023/06/27 12:22:54;;;;;;;7.10;1.62;;;23.90;99.90;;;;;;7347362;32;20111;-58
2023/06/27 12:26:56;;;;;;;11.45;2.10;;;24.10;99.90;;;;;;7345746;32;20262;-57
2023/06/27 12:30:58;;;;;;;8.50;1.77;;;23.80;99.90;;;;;;7347358;32;20238;-57
2023/06/27 12:35:00;;;;;;;10.02;1.70;;;23.00;99.90;;;;;;7346418;32;20127;-57
2023/06/27 12:39:03;;;;;;;6.87;1.40;;;22.60;99.90;;;;;;7349243;32;20149;-62
2023/06/27 12:43:05;;;;;;;3.17;1.20;;;22.50;99.90;;;;;;7345235;32;20246;-61
2023/06/27 12:47:07;;;;;;;5.97;1.10;;;22.70;99.90;;;;;;7342903;32;20431;-62
2023/06/27 12:51:11;;;;;;;7.15;1.85;;;23.50;99.90;;;;;;7346790;32;20624;-61
2023/06/27 12:55:17;;;;;;;5.85;1.50;;;23.30;99.90;;;;;;7342173;32;20486;-60
2023/06/27 12:59:26;;;;;;;6.03;1.75;;;23.20;99.90;;;;;;7348805;32;20594;-62
2023/06/27 13:03:28;;;;;;;4.55;1.50;;;23.10;99.90;;;;;;7344626;32;20186;-61
2023/06/27 13:07:31;;;;;;;6.65;1.20;;;22.90;99.90;;;;;;7350138;32;20139;-61
2023/06/27 13:11:33;;;;;;;6.53;1.20;;;22.40;99.90;;;;;;7343531;32;20111;-57
2023/06/27 13:15:34;;;;;;;5.85;1.40;;;22.10;99.90;;;;;;7343142;32;20128;-57
2023/06/27 13:19:43;;;;;;;5.37;1.27;;;21.90;99.90;;;;;;7347816;32;20127;-58
2023/06/27 13:23:47;;;;;;;7.75;1.35;;;22.70;99.90;;;;;;7350387;32;20246;-57
2023/06/27 13:27:51;;;;;;;4.03;1.30;;;23.60;99.90;;;;;;7348511;32;20126;-57
2023/06/27 13:31:54;;;;;;;6.05;1.40;;;24.30;96.40;;;;;;7346057;32;20129;-59
2023/06/27 13:35:56;;;;;;;4.05;1.10;;;24.70;95.40;;;;;;7352216;32;20133;-57
2023/06/27 13:39:58;;;;;;;4.40;1.05;;;24.60;94.50;;;;;;7339394;32;20115;-55
2023/06/27 13:44:00;;;;;;;7.35;1.50;;;24.60;95.30;;;;;;7352092;32;20163;-56
2023/06/27 13:48:02;;;;;;;4.85;1.42;;;24.20;94.90;;;;;;7346320;32;20795;-57
2023/06/27 13:52:05;;;;;;;8.25;1.25;;;23.90;95.10;;;;;;7346407;32;20163;-56
2023/06/27 13:56:06;;;;;;;3.92;1.20;;;24.10;94.50;;;;;;7353643;32;20270;-57
2023/06/27 14:00:09;;;;;;;3.83;0.85;;;23.70;95.60;;;;;;7349443;32;20161;-57
2023/06/27 14:04:11;;;;;;;4.43;1.00;;;23.70;94.30;;;;;;7352191;32;20107;-57
2023/06/27 14:08:13;;;;;;;4.60;1.02;;;23.70;92.20;;;;;;7348581;32;20140;-53
2023/06/27 14:12:16;;;;;;;1.37;0.77;;;23.90;94.50;;;;;;7345126;32;20166;-57
2023/06/27 14:16:18;;;;;;;3.92;0.90;;;23.70;95.20;;;;;;7343998;32;20213;-56
2023/06/27 14:20:20;;;;;;;2.58;0.80;;;23.60;94.20;;;;;;7345675;32;20225;-56
2023/06/27 14:24:22;;;;;;;5.50;0.68;;;23.20;95.40;;;;;;7353092;32;20218;-58
2023/06/27 14:28:24;;;;;;;3.62;0.75;;;23.20;93.40;;;;;;7358372;32;20137;-57
2023/06/27 14:32:25;;;;;;;5.50;0.90;;;22.90;93.90;;;;;;7353234;32;21172;-57
2023/06/27 14:36:27;;;;;;;2.00;0.90;;;22.90;95.70;;;;;;7348249;32;20540;-57
2023/06/27 14:40:31;;;;;;;4.95;1.00;;;22.80;96.80;;;;;;7351823;32;20306;-57
2023/06/27 14:44:32;;;;;;;2.22;0.90;;;22.80;94.60;;;;;;7350839;32;20226;-57
2023/06/27 14:48:35;;;;;;;3.10;1.00;;;22.80;96.50;;;;;;7351464;32;20160;-56
2023/06/27 14:52:37;;;;;;;5.75;1.15;;;22.70;95.60;;;;;;7355056;32;20273;-57
2023/06/27 14:56:39;;;;;;;4.93;1.20;;;22.60;95.60;;;;;;7352721;32;20135;-58
2023/06/27 15:00:41;;;;;;;2.75;0.90;;;22.70;99.00;;;;;;7352868;32;20107;-57
2023/06/27 15:04:43;;;;;;;3.65;0.70;;;22.80;96.00;;;;;;7352186;32;20441;-57
2023/06/27 15:08:45;;;;;;;6.65;1.87;;;22.90;95.60;;;;;;7350092;32;20199;-56
2023/06/27 15:12:47;;;;;;;5.93;2.28;;;22.70;96.50;;;;;;7347086;32;20617;-58
2023/06/27 15:16:49;;;;;;;3.83;1.30;;;22.60;96.20;;;;;;7349410;32;20275;-56
2023/06/27 15:20:51;;;;;;;6.53;1.10;;;22.60;96.70;;;;;;7348559;32;20723;-57
2023/06/27 15:24:53;;;;;;;3.03;1.58;;;22.50;97.20;;;;;;7346481;32;20111;-55
2023/06/27 15:28:55;;;;;;;5.30;1.33;;;22.30;97.00;;;;;;7349129;32;20130;-55
2023/06/27 15:32:57;;;;;;;5.82;1.45;;;22.20;96.90;;;;;;7351119;32;20219;-56
2023/06/27 15:36:59;;;;;;;8.18;1.30;;;22.20;98.10;;;;;;7350186;32;20126;-56
2023/06/27 15:41:00;;;;;;;3.78;1.00;;;22.30;95.90;;;;;;7343532;32;20183;-55
2023/06/27 15:45:03;;;;;;;3.78;1.12;;;22.20;98.70;;;;;;7344433;32;20103;-55
2023/06/27 15:49:05;;;;;;;4.43;1.20;;;22.10;98.80;;;;;;7342776;32;20130;-55
2023/06/27 15:53:06;;;;;;;5.12;1.48;;;22.30;97.40;;;;;;7342988;32;20190;-56
2023/06/27 15:57:08;;;;;;;6.18;1.30;;;22.00;97.10;;;;;;7345322;32;20139;-56
2023/06/27 16:01:10;;;;;;;43.72;2.85;;;21.90;97.70;;;;;;7345354;32;20294;-55
2023/06/27 16:05:12;;;;;;;9.60;1.30;;;22.00;99.90;;;;;;7342872;32;20114;-55
2023/06/27 16:09:14;;;;;;;4.53;0.90;;;22.10;99.90;;;;;;7341799;32;20091;-54
2023/06/27 16:13:15;;;;;;;7.07;1.25;;;21.90;99.90;;;;;;7346006;32;20855;-55
2023/06/27 16:17:17;;;;;;;7.93;1.42;;;22.00;99.40;;;;;;7347992;32;20842;-56
2023/06/27 16:21:19;;;;;;;4.90;1.25;;;21.90;99.80;;;;;;7354242;32;20657;-56
2023/06/27 16:25:21;;;;;;;7.53;1.77;;;21.80;99.90;;;;;;7349462;32;20134;-57
2023/06/27 16:29:23;;;;;;;6.22;1.10;;;21.80;99.90;;;;;;7351662;32;20488;-56
2023/06/27 16:33:25;;;;;;;5.43;1.25;;;21.70;99.90;;;;;;7348545;32;20194;-56
2023/06/27 16:37:27;;;;;;;6.68;1.10;;;21.50;99.90;;;;;;7347088;32;20139;-56
2023/06/27 16:41:29;;;;;;;5.20;1.37;;;21.50;99.90;;;;;;7351837;32;20126;-56
2023/06/27 16:45:32;;;;;;;2.83;0.90;;;21.50;99.90;;;;;;7347861;32;20170;-56
2023/06/27 16:49:34;;;;;;;2.22;1.00;;;21.40;99.90;;;;;;7350049;32;20207;-56
2023/06/27 16:53:36;;;;;;;6.07;1.05;;;21.30;99.90;;;;;;7349688;32;20115;-56
2023/06/27 16:57:37;;;;;;;4.82;1.10;;;21.30;99.90;;;;;;7350745;32;20209;-56
2023/06/27 17:01:39;;;;;;;5.50;1.40;;;21.30;99.90;;;;;;7350713;32;20147;-57
2023/06/27 17:05:41;;;;;;;4.93;0.90;;;21.20;99.90;;;;;;7353928;32;20531;-56
2023/06/27 17:09:43;;;;;;;4.85;1.08;;;21.20;99.90;;;;;;7345623;32;20178;-56
2023/06/27 17:13:45;;;;;;;2.00;0.93;;;21.20;99.90;;;;;;7349360;32;20122;-55
2023/06/27 17:17:50;;;;;;;5.50;1.20;;;21.20;99.90;;;;;;7350912;32;20163;-56
2023/06/27 17:21:51;;;;;;;7.15;1.15;;;21.20;99.90;;;;;;7342397;32;20127;-56
2023/06/27 17:25:53;;;;;;;3.72;1.10;;;21.20;99.90;;;;;;7352231;32;20203;-55
2023/06/27 17:29:55;;;;;;;4.75;1.20;;;21.10;99.90;;;;;;7354407;32;20183;-55
2023/06/27 17:33:57;;;;;;;3.85;1.00;;;20.90;99.90;;;;;;7350371;32;20192;-56
2023/06/27 17:37:58;;;;;;;6.78;1.20;;;20.80;99.90;;;;;;7346789;32;20149;-55
2023/06/27 17:42:01;;;;;;;5.43;1.10;;;20.70;99.90;;;;;;7346824;32;20111;-58
2023/06/27 17:46:03;;;;;;;3.95;1.00;;;20.70;99.90;;;;;;7347012;32;20174;-55
2023/06/27 17:50:08;;;;;;;4.53;1.50;;;20.60;99.90;;;;;;7351987;32;20103;-55
2023/06/27 17:54:10;;;;;;;3.97;1.10;;;20.70;99.90;;;;;;7355080;32;20119;-55
2023/06/27 17:58:12;;;;;;;4.75;1.20;;;20.60;99.90;;;;;;7357518;32;20686;-55
2023/06/27 18:02:14;;;;;;;3.03;0.95;;;20.70;99.90;;;;;;7354985;32;20115;-55
2023/06/27 18:06:18;;;;;;;5.00;1.20;;;20.60;99.90;;;;;;7356669;32;20168;-55
2023/06/27 18:10:20;;;;;;;5.57;1.37;;;20.60;99.90;;;;;;7350510;32;20376;-55
2023/06/27 18:14:22;;;;;;;4.35;1.05;;;20.60;99.90;;;;;;7349255;32;20213;-55
2023/06/27 18:18:23;;;;;;;3.45;0.95;;;20.50;99.90;;;;;;7351498;32;20156;-56
2023/06/27 18:22:25;;;;;;;3.70;1.20;;;20.30;99.90;;;;;;7354629;32;20119;-56
2023/06/27 18:26:27;;;;;;;4.15;1.48;;;20.20;99.90;;;;;;7353181;32;20501;-56
2023/06/27 18:30:30;;;;;;;2.80;1.00;;;20.20;99.90;;;;;;7356785;32;20139;-56
2023/06/27 18:34:32;;;;;;;2.80;0.90;;;20.20;99.90;;;;;;7351927;32;20141;-56
2023/06/27 18:38:36;;;;;;;3.45;1.10;;;20.20;99.90;;;;;;7349099;32;20213;-56
2023/06/27 18:42:38;;;;;;;5.22;0.90;;;20.10;99.90;;;;;;7348866;32;20206;-55
2023/06/27 18:46:39;;;;;;;4.65;1.23;;;20.10;99.90;;;;;;7342673;32;20183;-56
2023/06/27 18:50:41;;;;;;;4.40;0.80;;;20.00;99.90;;;;;;7355195;32;20184;-55
2023/06/27 18:54:44;;;;;;;2.90;1.05;;;20.00;99.90;;;;;;7348422;32;20174;-56
2023/06/27 18:58:45;;;;;;;2.20;0.88;;;20.00;99.90;;;;;;7353492;32;20190;-56
2023/06/27 19:02:47;;;;;;;4.85;0.70;;;19.90;99.90;;;;;;7352287;32;20251;-56
2023/06/27 19:06:50;;;;;;;5.10;1.00;;;19.70;99.90;;;;;;7352060;32;20513;-56
2023/06/27 19:10:52;;;;;;;6.20;1.55;;;19.70;99.90;;;;;;7353811;32;20156;-56
2023/06/27 19:14:53;;;;;;;5.10;1.00;;;19.70;99.90;;;;;;7348252;32;20115;-56
2023/06/27 19:18:55;;;;;;;3.60;0.90;;;19.70;99.90;;;;;;7352474;32;20285;-56
2023/06/27 19:22:58;;;;;;;4.20;0.80;;;19.70;99.90;;;;;;7340606;32;20747;-56
2023/06/27 19:27:00;;;;;;;3.12;0.85;;;19.50;99.90;;;;;;7356077;32;20107;-56
2023/06/27 19:31:02;;;;;;;5.12;0.77;;;19.50;99.90;;;;;;7350090;32;20130;-55
2023/06/27 19:35:04;;;;;;;3.10;1.20;;;19.40;99.90;;;;;;7349370;32;20555;-55
2023/06/27 19:39:06;;;;;;;22.45;20.02;;;19.40;99.90;;;;;;7346154;32;20130;-55
2023/06/27 19:43:07;;;;;;;5.00;2.17;;;19.40;99.90;;;;;;7336274;32;20271;-55
2023/06/27 19:47:09;;;;;;;4.03;1.00;;;19.30;99.90;;;;;;7353734;32;20257;-55
2023/06/27 19:51:11;;;;;;;4.07;0.90;;;19.20;99.90;;;;;;7350530;32;20135;-56
2023/06/27 19:55:13;;;;;;;5.65;1.15;;;19.30;99.90;;;;;;7352694;32;20118;-56
2023/06/27 19:59:15;;;;;;;5.45;1.23;;;19.00;99.90;;;;;;7353992;32;20129;-55
2023/06/27 20:03:17;;;;;;;4.03;0.77;;;19.00;99.90;;;;;;7344074;32;20111;-55
2023/06/27 20:07:19;;;;;;;5.12;1.10;;;19.00;99.90;;;;;;7352034;32;20178;-54
2023/06/27 20:11:20;;;;;;;2.85;1.02;;;19.00;99.90;;;;;;7352820;32;20511;-55
2023/06/27 20:15:22;;;;;;;4.20;0.98;;;18.90;99.90;;;;;;7351654;32;20230;-56
2023/06/27 20:19:24;;;;;;;3.30;0.80;;;18.80;99.90;;;;;;7347688;32;20171;-54
2023/06/27 20:23:26;;;;;;;5.97;1.23;;;18.90;99.90;;;;;;7349462;32;20137;-54
2023/06/27 20:27:28;;;;;;;4.12;0.93;;;18.70;99.90;;;;;;7350829;32;20125;-55
2023/06/27 20:31:30;;;;;;;2.60;1.00;;;18.60;99.90;;;;;;7348691;32;20107;-55
2023/06/27 20:35:31;;;;;;;2.90;0.80;;;18.60;99.90;;;;;;7345582;32;20217;-55
2023/06/27 20:39:33;;;;;;;4.22;1.40;;;18.60;99.90;;;;;;7346360;32;20180;-55
2023/06/27 20:43:35;;;;;;;2.67;0.80;;;18.60;99.90;;;;;;7349007;32;20157;-54
2023/06/27 20:47:37;;;;;;;3.83;1.00;;;18.50;99.90;;;;;;7346136;32;20152;-55
2023/06/27 20:51:39;;;;;;;2.85;1.10;;;18.50;99.90;;;;;;7351324;32;20129;-55
2023/06/27 20:55:41;;;;;;;2.78;0.75;;;18.30;99.90;;;;;;7349207;32;20172;-56
2023/06/27 20:59:43;;;;;;;4.68;1.10;;;18.30;99.90;;;;;;7352079;32;20230;-55